Delta, Utah Weather observations

Data are for observation ending at time listed.
 Day   Time    Ave.   Ave.  Ave.  Vector   Max.   Stn.    Total    Solar   Ave.  
  of    of     Air    Rel.  Wind   Wind    Wind   Baro.  Precip.   Rad.    Soil  
Year   Day     Temp.  Hum.  Speed  Dir.    Gust   Pres.                    Temp. 
2014   (MST)    F      %     mph   deg.    mph     mb.     in.     W/m2     F   
------------------------------------------------------------------------------
 273   11:40   61.0    50    2.5   189      6.8   859.2    0.00     613    99999.0
 273   11:50   61.2    49    2.8   200      6.0   859.1    0.00     619    99999.0
 273   12:00   61.5    49    2.4   211      5.8   859.0    0.00     622    99999.0
 273   12:10   62.0    45    2.2   258      5.1   859.0    0.00     624    99999.0
 273   12:20   62.0    48    2.4   186      5.6   858.9    0.00     627    99999.0
 273   12:30   62.2    43    1.7   251      3.6   858.7    0.00     625    99999.0
 273   12:40   62.6    42    1.8   189      3.7   858.7    0.00     623    99999.0
 273   12:50   63.3    44    2.3   190      5.6   858.5    0.00     618    99999.0
 273   13:00   63.5    43    2.9   183      5.8   858.3    0.00     614    99999.0
 273   13:10   63.8    42    2.4   205      5.6   858.1    0.00     606    99999.0
 273   13:20   64.2    43    1.6   187      4.3   858.0    0.00     600    99999.0
 273   13:30   64.7    41    2.1   161      5.8   857.8    0.00     593    99999.0
 273   13:40   65.1    39    2.1   192      5.3   857.7    0.00     581    99999.0
 273   13:50   64.8    36    3.2   225      6.5   857.6    0.00     568    99999.0
 273   14:00   64.8    35    2.1   224      5.2   857.4    0.00     557    99999.0
 273   14:10   65.0    34    2.5   216      5.6   857.3    0.00     545    99999.0
 273   14:20   65.4    33    2.9   188      6.8   857.3    0.00     532    99999.0
 273   14:30   65.2    34    2.5   132      7.5   857.2    0.00     385    99999.0
 273   14:40   65.0    35    1.5   149      3.1   857.1    0.00     303    99999.0
 273   14:50   65.7    35    2.0   147      4.8   857.0    0.00     588    99999.0
 273   15:00   65.9    35    2.7   160      5.2   856.8    0.00     351    99999.0
 273   15:10   66.2    35    2.8   182      6.9   856.6    0.00     388    99999.0
 273   15:20   66.5    34    2.3   202      5.6   856.6    0.00     396    99999.0
 273   15:30   66.4    32    2.5   186      5.8   856.4    0.00     138    99999.0
 273   15:40   66.6    34    2.7   191      6.3   856.3    0.00     167    99999.0
 273   15:50   66.6    32    2.5   186      4.9   856.3    0.00     166    99999.0
 273   16:00   66.8    32    1.9   158      5.3   856.3    0.00      93    99999.0
 273   16:10   67.4    31    2.2   183      5.9   856.3    0.00      95    99999.0
 273   16:20   66.8    32    1.4   274      3.9   856.3    0.00      62    99999.0
 273   16:30   65.9    34    2.7   329      6.7   856.3    0.00      28    99999.0
 273   16:40   63.9    39    3.1    23      6.1   856.2    0.00      26    99999.0
 273   16:50   63.6    39    0.7    85      2.9   856.1    0.00      31    99999.0
 273   17:00   63.7    39    1.1    38      3.4   856.0    0.00      29    99999.0
 273   17:10   63.9    39    1.7    36      3.5   855.9    0.00      14    99999.0
 273   17:20   63.7    39    2.2    37      4.9   855.8    0.00      15    99999.0
 273   17:30   63.3    40    1.7    34      3.7   855.9    0.00      19    99999.0
 273   17:40   63.5    40    1.9    22      4.6   855.9    0.00      30    99999.0
 273   17:50   63.7    40    2.4    37      4.5   855.8    0.00      17    99999.0
 273   18:00   63.7    39    2.4    22      5.2   855.8    0.00       8    99999.0
 273   18:10   62.9    42    2.3    39      5.0   855.7    0.00       6    99999.0
 273   18:20   61.9    44    2.5    30      4.9   855.6    0.00       2    99999.0
 273   18:30   61.2    46    2.4    26      6.1   855.7    0.00       0    99999.0
 273   18:40   60.5    47    1.6    48      3.9   855.7    0.00       0    99999.0
 273   18:50   59.7    49    2.2    52      6.2   855.7    0.00       0    99999.0
 273   19:00   58.9    52    2.8    50      6.6   855.6    0.00       0    99999.0
 273   19:10   58.2    54    2.6    51      4.6   855.6    0.00       0    99999.0
 273   19:20   57.8    55    2.0    34      4.9   855.6    0.00       0    99999.0
 273   19:30   58.1    54    2.8    21      6.4   855.6    0.00       0    99999.0
 273   19:40   57.9    55    3.2     1      5.6   855.7    0.00       0    99999.0
 273   19:50   57.1    58    4.0   353      8.3   855.9    0.00       0    99999.0
 273   20:00   56.6    61    4.4   355      8.7   856.0    0.00       0    99999.0
 273   20:10   56.7    65    4.9   352      9.6   856.2    0.00       0    99999.0
 273   20:20   56.6    68    4.4     3      8.6   856.2    0.00       0    99999.0
 273   20:30   56.8    65    2.5    14      7.7   856.4    0.00       0    99999.0
 273   20:40   56.6    64    4.1    31     10.1   856.3    0.00       0    99999.0
 273   20:50   56.4    64    3.9    20     11.6   856.2    0.00       0    99999.0
 273   21:00   56.2    65    2.5    43      5.8   856.2    0.00       0    99999.0
 273   21:10   56.2    64    2.8     7      6.9   856.1    0.00       0    99999.0
 273   21:20   56.2    65    3.7   314      9.3   856.7    0.00       0    99999.0
 273   21:30   56.2    65    6.2   356     11.8   856.6    0.00       0    99999.0
 273   21:40   56.4    66    5.8     3     13.3   856.4    0.00       0    99999.0
 273   21:50   55.5    69    7.2   359     16.4   856.5    0.00       0    99999.0
 273   22:00   54.8    71    7.3     2     13.7   856.7    0.00       0    99999.0
 273   22:10   54.7    71    8.4     6     17.3   856.5    0.00       0    99999.0
 273   22:20   54.6    72    4.9    16     11.2   856.5    0.00       0    99999.0
 273   22:30   54.2    72    3.9    34      8.3   856.6    0.00       0    99999.0
 273   22:40   53.9    74    3.9    12      7.8   856.8    0.00       0    99999.0
 273   22:50   53.6    76    3.4     2      8.0   857.1    0.00       0    99999.0
 273   23:00   53.0    78    3.3    18      7.7   857.2    0.00       0    99999.0
 273   23:10   53.0    78    4.0    36      9.5   857.2    0.00       0    99999.0
 273   23:20   52.8    79    4.4    47      9.9   857.1    0.00       0    99999.0
 273   23:30   52.8    78    3.4    45      8.1   857.1    0.00       0    99999.0
 273   23:40   52.8    76    2.9    40      8.0   857.0    0.00       0    99999.0
 273   23:50   53.2    74    3.6    20      8.0   857.0    0.00       0    99999.0
 274    0:00   53.4    73    3.1    13      6.9   857.0    0.00       0    99999.0
 274    0:10   53.4    76    2.3   331      4.4   857.2    0.00       0    99999.0
 274    0:20   52.9    78    2.6   293      4.7   857.6    0.00       0    99999.0
 274    0:30   52.4    80    2.2   261      3.9   857.9    0.01       0    99999.0
 274    0:40   51.7    85    2.2   266      5.4   858.2    0.03       0    99999.0
 274    0:50   51.0    86    1.5   227      3.4   858.2    0.04       0    99999.0
 274    1:00   50.8    89    2.0   226      4.2   858.2    0.01       0    99999.0
 274    1:10   50.7    90    3.1   228      5.8   858.6    0.01       0    99999.0
 274    1:20   50.5    90    1.6   217      3.7   858.5    0.04       0    99999.0
 274    1:30   50.5    90    0.6   265      2.7   858.3    0.01       0    99999.0
 274    1:40   50.5    91    2.0   282      3.7   858.4    0.00       0    99999.0
 274    1:50   50.4    90    2.4   290      4.7   858.4    0.00       0    99999.0
 274    2:00   49.9    90    2.8   306      6.1   858.4    0.00       0    99999.0
 274    2:10   48.9    89    3.1   310      5.0   858.6    0.00       0    99999.0
 274    2:20   48.4    90    3.4   309      7.3   858.6    0.00       0    99999.0
 274    2:30   47.8    89    2.9   321      6.3   858.6    0.00       0    99999.0
 274    2:40   47.9    88    3.5   312      7.1   858.6    0.00       0    99999.0
 274    2:50   48.0    87    3.9   333      8.2   858.5    0.00       0    99999.0
 274    3:00   48.0    83    5.1   339     11.8   858.2    0.00       0    99999.0
 274    3:10   48.0    76    6.1   337     12.1   858.1    0.00       0    99999.0
 274    3:20   47.6    77    5.4   333     10.9   858.3    0.00       0    99999.0
 274    3:30   47.2    78    5.9   338     11.0   858.3    0.00       0    99999.0
 274    3:40   46.8    80    5.4   349     10.4   858.3    0.00       0    99999.0
 274    3:50   46.8    78    5.2   339      9.0   858.4    0.00       0    99999.0
 274    4:00   46.9    78    4.7   328      9.7   858.6    0.00       0    99999.0
 274    4:10   46.7    77    5.3   333     10.0   858.6    0.01       0    99999.0
 274    4:20   46.5    77    4.7   338      8.8   858.8    0.00       0    99999.0
 274    4:30   46.5    77    3.3   336      9.1   858.8    0.00       0    99999.0
 274    4:40   46.5    78    2.9   314      5.3   859.0    0.00       0    99999.0
 274    4:50   46.3    78    2.2   291      4.5   859.2    0.00       0    99999.0
 274    5:00   46.4    78    1.9   275      4.6   859.3    0.00       0    99999.0
 274    5:10   46.6    80    2.3   285      5.1   859.4    0.00       0    99999.0
 274    5:20   46.5    79    2.0   300      4.5   859.5    0.00       0    99999.0
 274    5:30   46.5    78    1.7   317      3.7   859.7    0.00       0    99999.0
 274    5:40   46.5    78    2.1   313      5.1   859.9    0.00       0    99999.0
 274    5:50   46.3    75    3.0   326      7.6   860.0    0.00       0    99999.0
 274    6:00   46.3    74    2.8   317      6.9   860.1    0.00       0    99999.0
 274    6:10   46.1    74    2.9   332      5.9   860.2    0.00       0    99999.0
 274    6:20   45.8    74    2.5   343      6.5   860.3    0.00       0    99999.0
 274    6:30   45.5    74    1.6   342      4.1   860.4    0.00       0    99999.0
 274    6:40   45.4    74    1.8   302      3.4   860.6    0.00       3    99999.0
 274    6:50   45.2    74    2.7   295      4.7   860.8    0.00       6    99999.0
 274    7:00   45.4    71    3.3   316      9.0   860.9    0.00      24    99999.0
 274    7:10   46.2    64    4.5   330     11.2   861.1    0.00      35    99999.0
 274    7:20   46.4    62    5.0   337     10.2   861.3    0.00      36    99999.0
 274    7:30   46.6    60    5.3   338     10.9   861.4    0.00      41    99999.0
 274    7:40   46.7    59    5.4   331     12.8   861.4    0.00      51    99999.0
 274    7:50   46.7    59    5.2   333     10.4   861.5    0.00      41    99999.0
 274    8:00   46.7    59    5.1   344     10.5   861.6    0.00      57    99999.0
 274    8:10   46.6    59    4.2   348      8.7   861.8    0.00      60    99999.0
 274    8:20   46.8    58    4.0   346     10.3   861.9    0.00      72    99999.0
 274    8:30   47.1    58    4.0   347      8.6   862.0    0.00      86    99999.0
 274    8:40   47.5    57    3.8   347      9.0   862.1    0.00     103    99999.0
 274    8:50   47.8    57    5.1     0     11.5   862.2    0.00     153    99999.0
 274    9:00   49.4    53    5.9   355     12.3   862.3    0.00     307    99999.0
 274    9:10   50.5    51    6.3   343     13.2   862.4    0.00     436    99999.0
 274    9:20   51.0    50    6.6   346     13.0   862.5    0.00     452    99999.0
 274    9:30   50.9    49    6.4   341     12.8   862.6    0.00     325    99999.0
 274    9:40   50.2    48    6.3   342     15.4   862.7    0.00     269    99999.0
 274    9:50   51.0    47    6.4   341     12.1   862.7    0.00     256    99999.0
 274   10:00   51.3    45    6.6   340     12.4   862.7    0.00     251    99999.0
 274   10:10   51.6    47    6.9     6     14.1   862.8    0.00     436    99999.0
 274   10:20   51.8    46    6.6   354     16.3   862.9    0.00     521    99999.0
 274   10:30   52.0    46    6.4   357     15.4   862.9    0.00     579    99999.0
 274   10:40   52.7    46    5.7   350     11.0   862.9    0.00     606    99999.0
 274   10:50   53.3    46    4.2   325     10.5   862.9    0.00     598    99999.0
 274   11:00   53.1    46    5.1   342     12.6   862.9    0.00     603    99999.0
 274   11:10   53.0    42    6.2   342     12.9   862.9    0.00     630    99999.0
 274   11:20   53.3    42    5.6   334     14.8   862.9    0.00     575    99999.0
 274   11:30   53.4    42    4.6   332      9.3   862.8    0.00     579    99999.0

Return to Delta, Utah graphs page.


Western Regional Climate Center,wrcc@dri.edu